Time;durP1;ratioP1;P1;durP2;ratioP2;P2;SDS_P1;SDS_P2;PMS_P1;PMS_P2;Temp;Humidity;BMP_temperature;BMP_pressure;BME280_temperature;BME280_humidity;BME280_pressure;Samples;Min_cycle;Max_cycle;Signal;HPM_P1;HPM_P2
2022/10/22 00:01:03;;;;;;;;;;;;;;;12.84;100.00;100832.81;5036451;28;19916;-43
2022/10/22 00:03:28;;;;;;;;;;;;;;;12.82;100.00;100837.53;5037680;28;20114;-43
2022/10/22 00:05:54;;;;;;;;;;;;;;;12.80;100.00;100839.56;5034405;28;19913;-44
2022/10/22 00:08:19;;;;;;;;;;;;;;;12.78;100.00;100833.50;5032189;28;20107;-43
2022/10/22 00:10:44;;;;;;;;;;;;;;;12.76;100.00;100833.69;5036443;28;19921;-44
2022/10/22 00:13:09;;;;;;;;;;;;;;;12.74;100.00;100832.22;5037984;28;19921;-45
2022/10/22 00:15:35;;;;;;;;;;;;;;;12.72;100.00;100832.38;5035465;28;20240;-44
2022/10/22 00:18:00;;;;;;;;;;;;;;;12.71;100.00;100838.75;5037091;28;19921;-43
2022/10/22 00:20:25;;;;;;;;;;;;;;;12.70;100.00;100842.44;5034719;28;19927;-45
2022/10/22 00:22:50;;;;;;;;;;;;;;;12.68;100.00;100833.75;5039456;28;19912;-43
2022/10/22 00:25:15;;;;;;;;;;;;;;;12.67;100.00;100835.56;5040877;28;20225;-42
2022/10/22 00:27:41;;;;;;;;;;;;;;;12.66;100.00;100846.47;5040849;28;20399;-43
2022/10/22 00:30:06;;;;;;;;;;;;;;;12.65;100.00;100845.63;5039914;28;20365;-42
2022/10/22 00:32:31;;;;;;;;;;;;;;;12.64;100.00;100835.94;5041396;28;19912;-43
2022/10/22 00:34:57;;;;;;;;;;;;;;;12.64;100.00;100840.44;5038456;28;19927;-44
2022/10/22 00:37:22;;;;;;;;;;;;;;;12.63;100.00;100838.81;5040631;28;19921;-43
2022/10/22 00:39:47;;;;;;;;;;;;;;;12.54;100.00;100829.94;5034142;28;19916;-45
2022/10/22 00:42:16;;;;;;;;;;;;;;;12.61;100.00;100846.16;5040211;28;19916;-46
2022/10/22 00:45:00;;;;;;;;;;;;;;;12.59;100.00;100838.31;5039506;28;19928;-45
2022/10/22 00:47:27;;;;;;;;;;;;;;;12.57;100.00;100850.22;5040640;28;19924;-43
2022/10/22 00:49:54;;;;;;;;;;;;;;;12.54;100.00;100846.00;5037808;28;20597;-46
2022/10/22 00:52:20;;;;;;;;;;;;;;;12.52;100.00;100845.34;5040233;28;20387;-42
2022/10/22 00:54:45;;;;;;;;;;;;;;;12.49;100.00;100845.69;5040822;28;19913;-43
2022/10/22 00:57:11;;;;;;;;;;;;;;;12.47;100.00;100839.69;5040373;28;20419;-43
2022/10/22 00:59:36;;;;;;;;;;;;;;;12.42;100.00;100834.03;5030090;28;19925;-43
2022/10/22 01:02:02;;;;;;;;;;;;;;;12.40;100.00;100841.41;5032748;28;20443;-44
2022/10/22 01:04:27;;;;;;;;;;;;;;;12.38;100.00;100838.06;5020910;28;19912;-44
2022/10/22 01:06:52;;;;;;;;;;;;;;;12.34;100.00;100837.59;5038531;28;19921;-44
2022/10/22 01:09:44;;;;;;;;;;;;;;;12.30;100.00;100834.41;5040320;28;19994;-44
2022/10/22 01:12:20;;;;;;;;;;;;;;;12.26;100.00;100832.25;5036066;28;20074;-44
2022/10/22 01:14:57;;;;;;;;;;;;;;;12.23;100.00;100829.91;5032126;28;19922;-44
2022/10/22 01:17:39;;;;;;;;;;;;;;;12.21;100.00;100835.44;5040549;28;19992;-46
2022/10/22 01:20:18;;;;;;;;;;;;;;;12.19;100.00;100840.13;5036987;28;20149;-45
2022/10/22 01:23:03;;;;;;;;;;;;;;;12.17;100.00;100834.13;5038771;28;19970;-46
2022/10/22 01:25:34;;;;;;;;;;;;;;;12.15;100.00;100837.97;5031594;28;19913;-44
2022/10/22 01:27:59;;;;;;;;;;;;;;;12.11;100.00;100827.59;5039995;28;20213;-46
2022/10/22 01:30:25;;;;;;;;;;;;;;;12.10;100.00;100828.63;5039045;28;20418;-45
2022/10/22 01:32:53;;;;;;;;;;;;;;;12.08;100.00;100824.44;5037832;28;20004;-43
2022/10/22 01:35:22;;;;;;;;;;;;;;;12.06;100.00;100829.13;5035000;28;20387;-42
2022/10/22 01:37:50;;;;;;;;;;;;;;;12.05;100.00;100824.75;5039296;28;19940;-43
2022/10/22 01:40:16;;;;;;;;;;;;;;;12.03;100.00;100826.78;5039721;28;19917;-42
2022/10/22 01:42:42;;;;;;;;;;;;;;;12.02;100.00;100833.16;5036250;28;19936;-43
2022/10/22 01:45:11;;;;;;;;;;;;;;;12.01;100.00;100828.81;5037960;28;20040;-45
2022/10/22 01:47:56;;;;;;;;;;;;;;;12.00;100.00;100829.78;5040493;28;19920;-43
2022/10/22 01:50:25;;;;;;;;;;;;;;;11.99;100.00;100825.47;5015609;28;19956;-42
2022/10/22 01:53:05;;;;;;;;;;;;;;;11.99;100.00;100826.28;5038425;28;20334;-43
2022/10/22 01:55:33;;;;;;;;;;;;;;;11.99;100.00;100830.81;5039598;28;19917;-42
2022/10/22 01:58:04;;;;;;;;;;;;;;;11.97;100.00;100822.97;5033896;28;19971;-42
2022/10/22 02:00:29;;;;;;;;;;;;;;;11.96;100.00;100826.63;5038004;28;20410;-43
2022/10/22 02:03:01;;;;;;;;;;;;;;;11.95;100.00;100833.00;5038682;28;20023;-42
2022/10/22 02:05:34;;;;;;;;;;;;;;;11.92;100.00;100823.47;5022205;28;19927;-42
2022/10/22 02:08:01;;;;;;;;;;;;;;;11.94;100.00;100832.16;5039400;28;20430;-44
2022/10/22 02:10:28;;;;;;;;;;;;;;;11.96;100.00;100828.47;5038445;28;20390;-44
2022/10/22 02:12:54;;;;;;;;;;;;;;;11.96;100.00;100836.50;5038489;28;20209;-44
2022/10/22 02:15:20;;;;;;;;;;;;;;;12.01;100.00;100839.50;5038226;28;19921;-46
2022/10/22 02:17:46;;;;;;;;;;;;;;;12.04;100.00;100823.09;5039054;28;19960;-42
2022/10/22 02:20:15;;;;;;;;;;;;;;;12.07;100.00;100834.31;5015093;28;20367;-44
2022/10/22 02:22:40;;;;;;;;;;;;;;;12.11;100.00;100840.97;5038976;28;20303;-44
2022/10/22 02:25:06;;;;;;;;;;;;;;;12.15;100.00;100832.59;5033806;28;20160;-44
2022/10/22 02:27:33;;;;;;;;;;;;;;;12.17;100.00;100826.09;5039366;28;19923;-45
2022/10/22 02:30:06;;;;;;;;;;;;;;;12.19;100.00;100824.06;5038137;28;19990;-45
2022/10/22 02:32:35;;;;;;;;;;;;;;;12.22;100.00;100830.91;5035316;28;19927;-43
2022/10/22 02:35:01;;;;;;;;;;;;;;;12.23;100.00;100824.56;5035967;28;19959;-43
2022/10/22 02:37:27;;;;;;;;;;;;;;;12.25;100.00;100828.75;5038797;28;20364;-44
2022/10/22 02:39:53;;;;;;;;;;;;;;;12.25;100.00;100827.88;5032802;28;19921;-44
2022/10/22 02:42:18;;;;;;;;;;;;;;;12.25;100.00;100825.22;5020680;28;20321;-42
2022/10/22 02:44:44;;;;;;;;;;;;;;;12.24;100.00;100827.06;5036566;28;19917;-43
2022/10/22 02:47:09;;;;;;;;;;;;;;;12.23;100.00;100830.72;5038607;28;19924;-43
2022/10/22 02:49:34;;;;;;;;;;;;;;;12.23;100.00;100835.25;5036398;28;20007;-47
2022/10/22 02:51:59;;;;;;;;;;;;;;;12.23;100.00;100829.91;5037258;28;20466;-46
2022/10/22 02:54:25;;;;;;;;;;;;;;;12.26;100.00;100835.75;5038531;28;19939;-44
2022/10/22 02:56:50;;;;;;;;;;;;;;;12.28;100.00;100831.06;5037367;28;20505;-45
2022/10/22 02:59:15;;;;;;;;;;;;;;;12.29;100.00;100830.06;5034219;28;20459;-43
2022/10/22 03:01:40;;;;;;;;;;;;;;;12.28;100.00;100838.25;5037139;28;19917;-41
2022/10/22 03:04:05;;;;;;;;;;;;;;;12.29;100.00;100829.22;5037582;28;19917;-42
2022/10/22 03:06:31;;;;;;;;;;;;;;;12.26;100.00;100835.75;5036914;28;19982;-45
2022/10/22 03:08:56;;;;;;;;;;;;;;;12.26;100.00;100833.06;5037385;28;20483;-44
2022/10/22 03:11:21;;;;;;;;;;;;;;;12.26;100.00;100834.94;5037103;28;20171;-43
2022/10/22 03:13:46;;;;;;;;;;;;;;;12.23;100.00;100832.59;5038170;28;19925;-42
2022/10/22 03:16:11;;;;;;;;;;;;;;;12.22;100.00;100836.25;5036675;28;19966;-45
2022/10/22 03:18:37;;;;;;;;;;;;;;;12.23;100.00;100840.63;5038308;28;19960;-43
2022/10/22 03:21:18;;;;;;;;;;;;;;;12.21;100.00;100837.28;5035279;28;19917;-47
2022/10/22 03:23:43;;;;;;;;;;;;;;;12.20;100.00;100846.31;5030773;28;19916;-42
2022/10/22 03:26:09;;;;;;;;;;;;;;;12.19;100.00;100847.34;5037443;28;19940;-44
2022/10/22 03:28:35;;;;;;;;;;;;;;;12.18;100.00;100843.81;5010902;28;20156;-43
2022/10/22 03:31:00;;;;;;;;;;;;;;;12.19;100.00;100847.34;5036920;28;19921;-43
2022/10/22 03:33:25;;;;;;;;;;;;;;;12.19;100.00;100858.88;5019704;28;20043;-45
2022/10/22 03:35:50;;;;;;;;;;;;;;;12.21;100.00;100856.84;5035016;28;19963;-43
2022/10/22 03:38:16;;;;;;;;;;;;;;;12.23;100.00;100862.03;5038053;28;19917;-43
2022/10/22 03:40:42;;;;;;;;;;;;;;;12.26;100.00;100864.38;5037112;28;19964;-45
2022/10/22 03:43:07;;;;;;;;;;;;;;;12.26;100.00;100862.53;5030235;28;19921;-43
2022/10/22 03:45:32;;;;;;;;;;;;;;;12.28;100.00;100860.50;5027956;28;20280;-46
2022/10/22 03:47:58;;;;;;;;;;;;;;;12.30;100.00;100860.34;5037605;28;19912;-45
2022/10/22 03:50:23;;;;;;;;;;;;;;;12.34;100.00;100863.50;5035500;28;19939;-43
2022/10/22 03:52:48;;;;;;;;;;;;;;;12.34;100.00;100874.22;5032977;28;20079;-44
2022/10/22 03:55:13;;;;;;;;;;;;;;;12.37;100.00;100880.06;5026175;28;20587;-45
2022/10/22 03:57:38;;;;;;;;;;;;;;;12.39;100.00;100871.84;5037616;28;19917;-43
2022/10/22 04:00:05;;;;;;;;;;;;;;;12.40;100.00;100874.38;5039864;28;19913;-44
2022/10/22 04:02:30;;;;;;;;;;;;;;;12.41;100.00;100881.41;5042171;28;19916;-46
2022/10/22 04:04:55;;;;;;;;;;;;;;;12.43;100.00;100881.25;5038537;28;19930;-43
2022/10/22 04:07:20;;;;;;;;;;;;;;;12.45;100.00;100881.91;5041788;28;20248;-43
2022/10/22 04:09:45;;;;;;;;;;;;;;;12.47;100.00;100890.59;5041009;28;20295;-46
2022/10/22 04:12:10;;;;;;;;;;;;;;;12.48;100.00;100890.41;5041453;28;19920;-43
2022/10/22 04:14:36;;;;;;;;;;;;;;;12.50;100.00;100885.72;5041032;28;20348;-43
2022/10/22 04:17:01;;;;;;;;;;;;;;;12.52;100.00;100884.72;5035690;28;19964;-42
2022/10/22 04:19:26;;;;;;;;;;;;;;;12.53;100.00;100883.72;5040141;28;19920;-43
2022/10/22 04:21:51;;;;;;;;;;;;;;;12.50;100.00;100883.03;5039872;28;20023;-41
2022/10/22 04:24:17;;;;;;;;;;;;;;;12.56;100.00;100888.72;5040918;28;19971;-46
2022/10/22 04:26:42;;;;;;;;;;;;;;;12.54;100.00;100882.69;5040117;28;20189;-45
2022/10/22 04:29:07;;;;;;;;;;;;;;;12.59;100.00;100888.38;5039744;28;20011;-42
2022/10/22 04:31:33;;;;;;;;;;;;;;;12.62;100.00;100885.34;5040251;28;19989;-46
2022/10/22 04:33:59;;;;;;;;;;;;;;;12.62;100.00;100882.66;5034783;28;19931;-43
2022/10/22 04:36:25;;;;;;;;;;;;;;;12.60;100.00;100882.84;5039511;28;19917;-47
2022/10/22 04:38:54;;;;;;;;;;;;;;;12.59;100.00;100886.53;5008186;28;20356;-43
2022/10/22 04:41:21;;;;;;;;;;;;;;;12.59;100.00;100894.59;5040508;28;19913;-43
2022/10/22 04:43:47;;;;;;;;;;;;;;;12.59;100.00;100891.91;5039035;28;19916;-43
2022/10/22 04:46:13;;;;;;;;;;;;;;;12.59;100.00;100896.41;5038743;28;19968;-45
2022/10/22 04:48:40;;;;;;;;;;;;;;;12.58;100.00;100892.91;5039823;28;19948;-43
2022/10/22 04:51:05;;;;;;;;;;;;;;;12.61;100.00;100897.91;5032860;28;19948;-46
2022/10/22 04:53:31;;;;;;;;;;;;;;;12.62;100.00;100893.38;5041768;28;19960;-45
2022/10/22 04:56:11;;;;;;;;;;;;;;;12.61;100.00;100897.06;5038142;28;19921;-41
2022/10/22 04:58:37;;;;;;;;;;;;;;;12.62;100.00;100899.56;5035948;28;20007;-44
2022/10/22 05:01:09;;;;;;;;;;;;;;;12.64;100.00;100905.63;5035867;28;20023;-42
2022/10/22 05:03:34;;;;;;;;;;;;;;;12.64;100.00;100905.63;5029442;28;20015;-43
2022/10/22 05:06:00;;;;;;;;;;;;;;;12.64;100.00;100908.28;5037860;28;20019;-43
2022/10/22 05:08:25;;;;;;;;;;;;;;;12.65;100.00;100912.63;5038421;28;19921;-47
2022/10/22 05:10:51;;;;;;;;;;;;;;;12.65;100.00;100906.44;5038066;28;19963;-42
2022/10/22 05:13:16;;;;;;;;;;;;;;;12.65;100.00;100901.91;5039078;28;20031;-46
2022/10/22 05:15:41;;;;;;;;;;;;;;;12.65;100.00;100912.63;5038836;28;19921;-45
2022/10/22 05:18:06;;;;;;;;;;;;;;;12.66;100.00;100910.78;5040566;28;20019;-44
2022/10/22 05:20:31;;;;;;;;;;;;;;;12.72;100.00;100914.63;5037342;28;20011;-44
2022/10/22 05:22:56;;;;;;;;;;;;;;;12.74;100.00;100916.09;5038132;28;19932;-42
2022/10/22 05:25:22;;;;;;;;;;;;;;;12.77;100.00;100917.63;5033158;28;20039;-43
2022/10/22 05:27:50;;;;;;;;;;;;;;;12.83;100.00;100922.25;5023735;28;20022;-43
2022/10/22 05:30:15;;;;;;;;;;;;;;;12.85;100.00;100917.59;5039773;28;20139;-47
2022/10/22 05:32:40;;;;;;;;;;;;;;;12.87;100.00;100915.56;5037940;28;19971;-42
2022/10/22 05:35:06;;;;;;;;;;;;;;;12.90;100.00;100911.69;5033491;28;20445;-43
2022/10/22 05:37:31;;;;;;;;;;;;;;;12.92;100.00;100921.25;5037289;28;19925;-44
2022/10/22 05:39:56;;;;;;;;;;;;;;;12.94;100.00;100915.69;5033803;28;19921;-45
2022/10/22 05:42:21;;;;;;;;;;;;;;;12.91;100.00;100924.91;5039432;28;20012;-46
2022/10/22 05:44:47;;;;;;;;;;;;;;;12.91;100.00;100929.44;5038877;28;19916;-43
2022/10/22 05:47:12;;;;;;;;;;;;;;;12.88;100.00;100925.25;5027115;28;19920;-43
2022/10/22 05:49:37;;;;;;;;;;;;;;;12.85;100.00;100931.81;5037967;28;19994;-45
2022/10/22 05:52:03;;;;;;;;;;;;;;;12.82;100.00;100932.16;5037615;28;20470;-43
2022/10/22 05:54:28;;;;;;;;;;;;;;;12.82;100.00;100939.38;5037881;28;19956;-45
2022/10/22 05:56:54;;;;;;;;;;;;;;;12.81;100.00;100940.38;5037086;28;19964;-43
2022/10/22 05:59:19;;;;;;;;;;;;;;;12.81;100.00;100941.22;5039016;28;19925;-47
2022/10/22 06:01:44;;;;;;;;;;;;;;;12.79;100.00;100940.53;5037818;28;19917;-45
2022/10/22 06:04:10;;;;;;;;;;;;;;;12.78;100.00;100944.25;5037770;28;20247;-44
2022/10/22 06:06:46;;;;;;;;;;;;;;;12.80;100.00;100946.75;5036663;28;19917;-43
2022/10/22 06:09:14;;;;;;;;;;;;;;;12.80;100.00;100954.81;5033754;28;20303;-43
2022/10/22 06:11:39;;;;;;;;;;;;;;;12.76;100.00;100950.78;5037671;28;19932;-43
2022/10/22 06:14:05;;;;;;;;;;;;;;;12.73;100.00;100948.44;5039616;28;19924;-46
2022/10/22 06:16:30;;;;;;;;;;;;;;;12.72;100.00;100952.97;5028728;28;19925;-42
2022/10/22 06:18:57;;;;;;;;;;;;;;;12.76;100.00;100958.81;5032418;28;19943;-44
2022/10/22 06:21:22;;;;;;;;;;;;;;;12.75;100.00;100966.03;5031065;28;20019;-44
2022/10/22 06:23:47;;;;;;;;;;;;;;;12.75;100.00;100970.56;5031211;28;20356;-44
2022/10/22 06:26:12;;;;;;;;;;;;;;;12.72;100.00;100976.25;5034090;28;19920;-43
2022/10/22 06:28:38;;;;;;;;;;;;;;;12.71;100.00;100979.94;5029545;28;19928;-42
2022/10/22 06:31:03;;;;;;;;;;;;;;;12.68;100.00;100984.63;5030232;28;19923;-45
2022/10/22 06:33:30;;;;;;;;;;;;;;;12.72;100.00;100995.03;5038056;28;20407;-46
2022/10/22 06:36:03;;;;;;;;;;;;;;;12.72;100.00;100995.84;5036112;28;19920;-43
2022/10/22 06:38:28;;;;;;;;;;;;;;;12.72;100.00;100997.69;5037017;28;20338;-45
2022/10/22 06:40:53;;;;;;;;;;;;;;;12.70;100.00;101003.22;5032713;28;19913;-47
2022/10/22 06:43:18;;;;;;;;;;;;;;;12.67;100.00;101001.72;5025332;28;19913;-46
2022/10/22 06:45:43;;;;;;;;;;;;;;;12.67;100.00;101008.91;5037851;28;20299;-45
2022/10/22 06:48:09;;;;;;;;;;;;;;;12.67;100.00;101012.44;5037586;28;19917;-45
2022/10/22 06:50:34;;;;;;;;;;;;;;;12.68;100.00;101014.13;5036137;28;19932;-48
2022/10/22 06:52:59;;;;;;;;;;;;;;;12.69;100.00;101022.97;5038121;28;20627;-47
2022/10/22 06:55:24;;;;;;;;;;;;;;;12.71;100.00;101022.81;5038221;28;19925;-42
2022/10/22 06:57:50;;;;;;;;;;;;;;;12.69;100.00;101034.56;5037354;28;19987;-43
2022/10/22 07:00:15;;;;;;;;;;;;;;;12.71;100.00;101034.34;5036834;28;20374;-43
2022/10/22 07:02:40;;;;;;;;;;;;;;;12.68;100.00;101027.50;5026190;28;19992;-43
2022/10/22 07:05:05;;;;;;;;;;;;;;;12.75;100.00;101041.06;5017414;28;20387;-42
2022/10/22 07:07:31;;;;;;;;;;;;;;;12.76;100.00;101032.00;5018041;28;19921;-43
2022/10/22 07:09:56;;;;;;;;;;;;;;;12.78;100.00;101043.41;5021606;28;19923;-43
2022/10/22 07:12:21;;;;;;;;;;;;;;;12.78;100.00;101047.91;5036179;28;20003;-43
2022/10/22 07:14:47;;;;;;;;;;;;;;;12.79;100.00;101053.09;5037134;28;19988;-47
2022/10/22 07:17:12;;;;;;;;;;;;;;;12.81;100.00;101051.13;5037578;28;20291;-43
2022/10/22 07:19:37;;;;;;;;;;;;;;;12.83;100.00;101056.28;5036311;28;20143;-43
2022/10/22 07:22:03;;;;;;;;;;;;;;;12.85;100.00;101059.66;5037322;28;19920;-42
2022/10/22 07:24:28;;;;;;;;;;;;;;;12.88;100.00;101062.81;5036783;28;19931;-46
2022/10/22 07:26:53;;;;;;;;;;;;;;;12.94;100.00;101065.81;5036378;28;19917;-43
2022/10/22 07:29:18;;;;;;;;;;;;;;;12.99;100.00;101066.16;5032776;28;19948;-44
2022/10/22 07:31:44;;;;;;;;;;;;;;;13.02;100.00;101068.50;5026822;28;20291;-45
2022/10/22 07:34:09;;;;;;;;;;;;;;;13.02;100.00;101063.13;5024071;28;19921;-45
2022/10/22 07:36:35;;;;;;;;;;;;;;;13.05;100.00;101068.97;5036547;28;19912;-45
2022/10/22 07:39:00;;;;;;;;;;;;;;;13.14;100.00;101072.47;5037476;28;19927;-43
2022/10/22 07:41:26;;;;;;;;;;;;;;;13.27;100.00;101081.81;5037054;28;19951;-43
2022/10/22 07:43:51;;;;;;;;;;;;;;;13.38;100.00;101078.78;5034413;28;19925;-48
2022/10/22 07:46:17;;;;;;;;;;;;;;;13.47;100.00;101090.31;5035734;28;20156;-45
2022/10/22 07:48:43;;;;;;;;;;;;;;;13.48;100.00;101081.28;5028469;28;19917;-45
2022/10/22 07:51:08;;;;;;;;;;;;;;;13.54;100.00;101096.66;5036262;28;20353;-43
2022/10/22 07:53:33;;;;;;;;;;;;;;;13.63;100.00;101095.63;5037676;28;19944;-42
2022/10/22 07:55:59;;;;;;;;;;;;;;;13.75;100.00;101093.38;5036869;28;19920;-47
2022/10/22 07:58:24;;;;;;;;;;;;;;;13.85;100.00;101093.13;5037578;28;20110;-57
2022/10/22 08:00:49;;;;;;;;;;;;;;;13.93;100.00;101098.47;5036383;28;20563;-44
2022/10/22 08:03:16;;;;;;;;;;;;;;;13.98;100.00;101096.94;5034516;28;19924;-59
2022/10/22 08:05:44;;;;;;;;;;;;;;;14.05;100.00;101096.22;5017842;28;20422;-44
2022/10/22 08:08:10;;;;;;;;;;;;;;;14.13;100.00;101107.75;5030313;28;19917;-45
2022/10/22 08:10:35;;;;;;;;;;;;;;;14.20;100.00;101110.56;5036940;28;19966;-43
2022/10/22 08:13:01;;;;;;;;;;;;;;;14.25;100.00;101115.41;5033393;28;19925;-43
2022/10/22 08:15:26;;;;;;;;;;;;;;;14.26;100.00;101120.59;5018122;28;20012;-46
2022/10/22 08:17:51;;;;;;;;;;;;;;;14.31;100.00;101130.81;5036956;28;19987;-42
2022/10/22 08:20:17;;;;;;;;;;;;;;;14.37;100.00;101124.69;5035198;28;20280;-44
2022/10/22 08:22:42;;;;;;;;;;;;;;;14.41;100.00;101123.34;5035401;28;19916;-43
2022/10/22 08:25:07;;;;;;;;;;;;;;;14.49;100.00;101136.72;5037255;28;19905;-42
2022/10/22 08:27:33;;;;;;;;;;;;;;;14.55;100.00;101129.78;5018543;28;20382;-43
2022/10/22 08:29:58;;;;;;;;;;;;;;;14.62;100.00;101136.13;5036169;28;19935;-42
2022/10/22 08:32:23;;;;;;;;;;;;;;;14.68;100.00;101145.31;5037010;28;19913;-47
2022/10/22 08:34:49;;;;;;;;;;;;;;;14.77;100.00;101146.94;5023118;28;19913;-42
2022/10/22 08:37:15;;;;;;;;;;;;;;;14.89;100.00;101153.53;5029673;28;19925;-42
2022/10/22 08:39:41;;;;;;;;;;;;;;;15.00;100.00;101160.31;5036008;28;19917;-44
2022/10/22 08:42:25;;;;;;;;;;;;;;;15.04;100.00;101163.50;5036322;28;19912;-43
2022/10/22 08:45:13;;;;;;;;;;;;;;;15.06;100.00;101177.59;5036018;28;20027;-44
2022/10/22 08:47:58;;;;;;;;;;;;;;;15.07;100.00;101168.50;4997188;28;19917;-44
2022/10/22 08:50:29;;;;;;;;;;;;;;;15.14;100.00;101177.53;5038664;28;19919;-47
2022/10/22 08:52:56;;;;;;;;;;;;;;;15.16;100.00;101186.25;5039970;28;19920;-42
2022/10/22 08:55:23;;;;;;;;;;;;;;;15.17;100.00;101185.22;5039694;28;19913;-47
2022/10/22 08:58:08;;;;;;;;;;;;;;;15.20;100.00;101184.84;5039644;28;19916;-45
2022/10/22 09:00:35;;;;;;;;;;;;;;;15.24;100.00;101191.56;5007149;28;19924;-42
2022/10/22 09:03:13;;;;;;;;;;;;;;;15.26;100.00;101188.69;5039176;28;20389;-48
2022/10/22 09:05:41;;;;;;;;;;;;;;;15.30;100.00;101196.19;5038001;28;19948;-47
2022/10/22 09:08:11;;;;;;;;;;;;;;;15.35;100.00;101201.03;5013190;28;20007;-43
2022/10/22 09:10:39;;;;;;;;;;;;;;;15.35;100.00;101194.81;5038492;28;19920;-44
2022/10/22 09:13:04;;;;;;;;;;;;;;;15.31;100.00;101199.75;5039882;28;19932;-47
2022/10/22 09:15:30;;;;;;;;;;;;;;;15.31;100.00;101202.44;5034802;28;20351;-43
2022/10/22 09:18:09;;;;;;;;;;;;;;;15.30;100.00;101209.66;5038536;28;19974;-41
2022/10/22 09:20:37;;;;;;;;;;;;;;;15.29;100.00;101218.75;5037670;28;20019;-42
2022/10/22 09:23:02;;;;;;;;;;;;;;;15.26;100.00;101219.13;5038820;28;20201;-44
2022/10/22 09:25:32;;;;;;;;;;;;;;;15.25;100.00;101219.28;5038507;28;20401;-43
2022/10/22 09:27:57;;;;;;;;;;;;;;;15.27;100.00;101218.09;5025899;28;19912;-44
2022/10/22 09:30:24;;;;;;;;;;;;;;;15.29;100.00;101226.81;5038756;28;19920;-44
2022/10/22 09:33:00;;;;;;;;;;;;;;;15.32;100.00;101228.31;5037684;28;19927;-43
2022/10/22 09:35:25;;;;;;;;;;;;;;;15.32;100.00;101232.84;5038251;28;19912;-44
2022/10/22 09:37:53;;;;;;;;;;;;;;;15.37;100.00;101235.84;5038247;28;20397;-46
2022/10/22 09:40:19;;;;;;;;;;;;;;;15.43;100.00;101237.81;5032429;28;20003;-45
2022/10/22 09:42:45;;;;;;;;;;;;;;;15.47;100.00;101237.22;5039456;28;20109;-43
2022/10/22 09:45:14;;;;;;;;;;;;;;;15.52;100.00;101246.63;5038260;28;19919;-44
2022/10/22 09:47:40;;;;;;;;;;;;;;;15.51;100.00;101251.16;5039422;28;19913;-45
2022/10/22 09:50:08;;;;;;;;;;;;;;;15.52;100.00;101250.16;5036325;28;20476;-47
2022/10/22 09:52:34;;;;;;;;;;;;;;;15.55;100.00;101252.47;5038682;28;20016;-44
2022/10/22 09:55:00;;;;;;;;;;;;;;;15.55;100.00;101252.47;5036569;28;20007;-45
2022/10/22 09:57:27;;;;;;;;;;;;;;;15.55;100.00;101260.56;5038202;28;19913;-45
2022/10/22 09:59:53;;;;;;;;;;;;;;;15.51;100.00;101272.69;5034983;28;20325;-45
2022/10/22 10:02:20;;;;;;;;;;;;;;;15.48;100.00;101273.09;5039053;28;20287;-44
2022/10/22 10:04:53;;;;;;;;;;;;;;;15.44;100.00;101274.44;5036489;28;19923;-46
2022/10/22 10:07:20;;;;;;;;;;;;;;;15.40;100.00;101284.75;5039060;28;19925;-42
2022/10/22 10:09:46;;;;;;;;;;;;;;;15.29;100.00;101277.09;5037388;28;19917;-47
2022/10/22 10:12:44;;;;;;;;;;;;;;;15.39;100.00;101287.63;5036232;28;20421;-44
2022/10/22 10:15:18;;;;;;;;;;;;;;;15.51;100.00;101280.75;4984347;28;20530;-46
2022/10/22 10:17:51;;;;;;;;;;;;;;;15.69;100.00;101287.69;5023632;28;19920;-42
2022/10/22 10:20:37;;;;;;;;;;;;;;;15.87;100.00;101282.81;5018749;28;22036;-46
2022/10/22 10:23:21;;;;;;;;;;;;;;;16.06;100.00;101296.75;5024161;28;19978;-43
2022/10/22 10:25:49;;;;;;;;;;;;;;;16.27;100.00;101295.97;5033593;28;19948;-43
2022/10/22 10:28:23;;;;;;;;;;;;;;;16.36;100.00;101298.38;5038689;28;20391;-42
2022/10/22 10:31:09;;;;;;;;;;;;;;;16.38;100.00;101301.72;5037671;28;19908;-43
2022/10/22 10:33:53;;;;;;;;;;;;;;;16.50;100.00;101307.47;5036641;28;19917;-45
2022/10/22 10:36:26;;;;;;;;;;;;;;;16.59;100.00;101297.41;5036504;28;19913;-47
2022/10/22 10:38:57;;;;;;;;;;;;;;;16.65;100.00;101296.66;5037868;28;20409;-46
2022/10/22 10:41:51;;;;;;;;;;;;;;;16.69;100.00;101295.25;5038076;28;20390;-45
2022/10/22 10:44:35;;;;;;;;;;;;;;;16.86;100.00;101301.25;5017673;28;19923;-47
2022/10/22 10:47:11;;;;;;;;;;;;;;;16.84;100.00;101310.56;5027441;28;19917;-47
2022/10/22 10:49:36;;;;;;;;;;;;;;;17.00;100.00;101296.84;5036514;28;19959;-43
2022/10/22 10:52:20;;;;;;;;;;;;;;;17.25;100.00;101302.69;5026298;28;19952;-43
2022/10/22 10:54:45;;;;;;;;;;;;;;;17.52;100.00;101302.91;5037456;28;20422;-45
2022/10/22 10:57:15;;;;;;;;;;;;;;;17.62;100.00;101313.38;5037935;28;19986;-45
2022/10/22 10:59:46;;;;;;;;;;;;;;;17.64;100.00;101309.44;5033142;28;19917;-44
2022/10/22 11:02:31;;;;;;;;;;;;;;;17.52;100.00;101311.84;5037213;28;20360;-43
2022/10/22 11:05:15;;;;;;;;;;;;;;;17.42;100.00;101324.00;5024094;28;19975;-47
2022/10/22 11:07:44;;;;;;;;;;;;;;;17.48;100.00;101307.88;5037673;28;19939;-43
2022/10/22 11:10:23;;;;;;;;;;;;;;;17.67;100.00;101310.91;5037479;28;19920;-44
2022/10/22 11:12:51;;;;;;;;;;;;;;;17.85;100.00;101313.09;5037792;28;19960;-44
2022/10/22 11:15:19;;;;;;;;;;;;;;;17.94;100.00;101316.50;5033311;28;19917;-44
2022/10/22 11:17:45;;;;;;;;;;;;;;;17.81;100.00;101314.53;5030559;28;20416;-46
2022/10/22 11:20:33;;;;;;;;;;;;;;;17.65;100.00;101324.63;5024933;28;19917;-45
2022/10/22 11:23:03;;;;;;;;;;;;;;;17.46;100.00;101318.00;5013882;28;19939;-44
2022/10/22 11:25:38;;;;;;;;;;;;;;;17.30;100.00;101318.31;5030038;28;19917;-45
2022/10/22 11:28:09;;;;;;;;;;;;;;;17.20;100.00;101317.78;5025184;28;20137;-43
2022/10/22 11:30:35;;;;;;;;;;;;;;;17.12;100.00;101324.13;5036417;28;19923;-42
2022/10/22 11:33:02;;;;;;;;;;;;;;;17.06;100.00;101312.25;5035926;28;19916;-42
2022/10/22 11:35:37;;;;;;;;;;;;;;;17.03;100.00;101311.81;5017871;28;19916;-47
2022/10/22 11:38:04;;;;;;;;;;;;;;;17.08;100.00;101321.00;5037446;28;19916;-43
2022/10/22 11:40:36;;;;;;;;;;;;;;;17.30;100.00;101311.03;5036948;28;19920;-47
2022/10/22 11:43:06;;;;;;;;;;;;;;;17.49;100.00;101300.59;5037269;28;20003;-47
2022/10/22 11:45:36;;;;;;;;;;;;;;;17.56;100.00;101306.03;5036140;28;19916;-46
2022/10/22 11:48:10;;;;;;;;;;;;;;;17.82;100.00;101311.66;5036123;28;19913;-45
2022/10/22 11:50:53;;;;;;;;;;;;;;;17.91;100.00;101315.06;5036719;28;20299;-45
2022/10/22 11:53:24;;;;;;;;;;;;;;;17.89;100.00;101317.13;5036240;28;19920;-47
2022/10/22 11:55:54;;;;;;;;;;;;;;;17.84;100.00;101301.47;5036213;28;20011;-44
2022/10/22 11:58:29;;;;;;;;;;;;;;;17.88;100.00;101302.75;5031907;28;19917;-46
2022/10/22 12:00:56;;;;;;;;;;;;;;;18.03;100.00;101304.53;5036390;28;20328;-46
2022/10/22 12:03:39;;;;;;;;;;;;;;;18.31;100.00;101307.16;5032641;28;19923;-48
2022/10/22 12:06:10;;;;;;;;;;;;;;;18.73;100.00;101309.81;5028586;28;20407;-47
2022/10/22 12:08:41;;;;;;;;;;;;;;;19.00;100.00;101305.31;5036171;28;19917;-41
2022/10/22 12:11:09;;;;;;;;;;;;;;;19.06;100.00;101299.09;5037059;28;20027;-43
2022/10/22 12:13:55;;;;;;;;;;;;;;;19.19;100.00;101301.81;5035024;28;19928;-42
2022/10/22 12:16:22;;;;;;;;;;;;;;;19.26;100.00;101306.38;5035955;28;20000;-47
2022/10/22 12:18:48;;;;;;;;;;;;;;;19.24;100.00;101311.19;5038257;28;19942;-44
2022/10/22 12:21:15;;;;;;;;;;;;;;;19.27;95.35;101310.78;5039679;28;20003;-45
2022/10/22 12:23:40;;;;;;;;;;;;;;;19.22;99.19;101314.09;5022566;28;19985;-43
2022/10/22 12:26:20;;;;;;;;;;;;;;;19.04;99.98;101322.81;5036615;28;20494;-44
2022/10/22 12:28:45;;;;;;;;;;;;;;;18.85;100.00;101321.72;5040956;28;20379;-44
2022/10/22 12:31:15;;;;;;;;;;;;;;;18.68;100.00;101323.94;5039562;28;19999;-43
2022/10/22 12:33:40;;;;;;;;;;;;;;;18.49;100.00;101327.41;5040545;28;19919;-45